createdAt,value
2019-02-18T00:01:33.451Z,4.87
2019-02-18T00:04:02.971Z,7.47
2019-02-18T00:06:32.244Z,7.97
2019-02-18T00:09:01.348Z,6.77
2019-02-18T00:11:29.921Z,5.23
2019-02-18T00:13:58.307Z,8.70
2019-02-18T00:16:27.607Z,7.07
2019-02-18T00:18:56.723Z,7.17
2019-02-18T00:21:26.648Z,7.03
2019-02-18T00:23:55.508Z,5.27
2019-02-18T00:26:24.807Z,5.43
2019-02-18T00:28:53.508Z,4.73
2019-02-18T00:31:22.579Z,6.90
2019-02-18T00:33:51.189Z,7.03
2019-02-18T00:36:20.480Z,6.23
2019-02-18T00:38:49.359Z,5.47
2019-02-18T00:41:17.940Z,5.93
2019-02-18T00:43:47.659Z,6.50
2019-02-18T00:46:16.391Z,6.27
2019-02-18T00:48:45.340Z,6.57
2019-02-18T00:51:14.395Z,5.50
2019-02-18T00:53:42.851Z,5.87
2019-02-18T00:56:11.587Z,6.90
2019-02-18T00:58:40.480Z,4.77
2019-02-18T01:01:09.234Z,5.97
2019-02-18T01:03:38.061Z,6.67
2019-02-18T01:06:07.663Z,8.20
2019-02-18T01:08:36.049Z,5.63
2019-02-18T01:11:05.237Z,6.30
2019-02-18T01:13:33.817Z,5.70
2019-02-18T01:16:02.524Z,6.00
2019-02-18T01:18:31.308Z,5.70
2019-02-18T01:21:00.030Z,5.93
2019-02-18T01:23:29.186Z,6.03
2019-02-18T01:25:58.488Z,4.30
2019-02-18T01:28:27.269Z,5.90
2019-02-18T01:30:55.870Z,5.27
2019-02-18T01:33:24.949Z,5.90
2019-02-18T01:35:54.245Z,5.03
2019-02-18T01:38:22.940Z,5.80
2019-02-18T01:40:51.869Z,6.87
2019-02-18T01:43:23.682Z,7.07
2019-02-18T01:45:52.788Z,4.37
2019-02-18T01:48:21.785Z,5.27
2019-02-18T01:50:50.816Z,4.23
2019-02-18T01:53:19.946Z,5.47
2019-02-18T01:55:48.835Z,7.03
2019-02-18T01:58:17.448Z,5.37
2019-02-18T02:00:46.228Z,4.07
2019-02-18T02:03:15.021Z,4.20
2019-02-18T02:05:43.992Z,4.80
2019-02-18T02:08:13.008Z,5.30
2019-02-18T02:10:42.100Z,5.30
2019-02-18T02:13:31.503Z,5.17
2019-02-18T02:16:01.280Z,6.03
2019-02-18T02:18:30.399Z,5.97
2019-02-18T02:20:59.571Z,6.50
2019-02-18T02:23:28.362Z,5.53
2019-02-18T02:25:57.040Z,7.03
2019-02-18T02:28:25.911Z,4.70
2019-02-18T02:30:54.531Z,4.17
2019-02-18T02:33:23.602Z,6.00
2019-02-18T02:35:52.919Z,8.37
2019-02-18T02:38:21.902Z,8.03
2019-02-18T02:40:50.389Z,4.63
2019-02-18T02:43:18.969Z,5.53
2019-02-18T02:45:47.860Z,7.97
2019-02-18T02:48:17.169Z,4.33
2019-02-18T02:50:46.360Z,5.37
2019-02-18T02:53:15.555Z,5.33
2019-02-18T02:55:43.730Z,4.57
2019-02-18T02:58:12.407Z,4.50
2019-02-18T03:00:41.400Z,4.27
2019-02-18T03:03:10.298Z,3.83
2019-02-18T03:05:39.388Z,6.47
2019-02-18T03:08:20.063Z,3.70
2019-02-18T03:10:39.428Z,7.03
2019-02-18T03:13:08.428Z,4.83
2019-02-18T03:15:37.509Z,5.67
2019-02-18T03:18:06.650Z,3.63
2019-02-18T03:20:35.709Z,4.90
2019-02-18T03:23:04.908Z,4.07
2019-02-18T03:25:34.072Z,4.30
2019-02-18T03:28:06.638Z,3.80
2019-02-18T03:30:41.081Z,3.70
2019-02-18T03:33:10.910Z,3.77
2019-02-18T03:35:41.076Z,3.70
2019-02-18T03:38:09.901Z,3.93
2019-02-18T03:40:39.054Z,4.17
2019-02-18T03:43:08.310Z,5.07
2019-02-18T03:45:36.675Z,5.67
2019-02-18T03:48:06.293Z,4.27
2019-02-18T03:50:35.280Z,4.43
2019-02-18T03:53:04.081Z,4.63
2019-02-18T03:55:33.382Z,3.90
2019-02-18T03:58:02.419Z,4.33
2019-02-18T04:00:31.261Z,3.50
2019-02-18T04:02:59.429Z,4.47
2019-02-18T04:05:28.524Z,4.43
2019-02-18T04:07:57.101Z,5.77
2019-02-18T04:10:25.845Z,4.57
2019-02-18T04:12:55.202Z,6.77
2019-02-18T04:15:23.980Z,4.57
2019-02-18T04:17:52.984Z,5.33
2019-02-18T04:20:22.495Z,5.40
2019-02-18T04:22:51.980Z,6.77
2019-02-18T04:25:21.580Z,4.23
2019-02-18T04:27:50.488Z,4.17
2019-02-18T04:30:19.274Z,4.40
2019-02-18T04:32:48.049Z,4.53
2019-02-18T04:35:17.760Z,3.80
2019-02-18T04:37:45.989Z,3.53
2019-02-18T04:40:15.260Z,5.60
2019-02-18T04:42:44.421Z,4.13
2019-02-18T04:45:12.437Z,4.43
2019-02-18T04:47:41.505Z,4.90
2019-02-18T04:50:10.361Z,4.23
2019-02-18T04:52:38.991Z,3.77
2019-02-18T04:55:08.787Z,3.33
2019-02-18T04:57:37.360Z,3.70
2019-02-18T05:00:08.531Z,3.37
2019-02-18T05:02:38.208Z,3.40
2019-02-18T05:05:07.002Z,4.03
2019-02-18T05:07:36.201Z,3.53
2019-02-18T05:10:05.602Z,3.63
2019-02-18T05:12:34.309Z,3.93
2019-02-18T05:15:03.159Z,5.00
2019-02-18T05:17:31.980Z,3.33
2019-02-18T05:20:01.689Z,3.73
2019-02-18T05:22:31.401Z,3.43
2019-02-18T05:25:00.581Z,4.97
2019-02-18T05:27:33.285Z,5.07
2019-02-18T05:30:00.834Z,3.00
2019-02-18T05:32:30.952Z,2.73
2019-02-18T05:35:01.025Z,3.17
2019-02-18T05:37:30.990Z,2.57
2019-02-18T05:39:59.762Z,6.30
2019-02-18T05:42:28.670Z,4.13
2019-02-18T05:44:57.542Z,4.20
2019-02-18T05:47:26.256Z,3.80
2019-02-18T05:49:55.540Z,5.40
2019-02-18T05:52:23.922Z,3.93
2019-02-18T05:54:53.875Z,3.33
2019-02-18T05:57:24.261Z,6.37
2019-02-18T05:59:52.951Z,5.00
2019-02-18T06:02:22.873Z,3.70
2019-02-18T06:04:51.798Z,5.67
2019-02-18T06:07:21.341Z,4.27
2019-02-18T06:09:49.957Z,5.20
2019-02-18T06:12:19.195Z,6.13
2019-02-18T06:14:48.223Z,4.33
2019-02-18T06:17:17.518Z,3.97
2019-02-18T06:19:46.659Z,4.63
2019-02-18T06:22:15.727Z,3.63
2019-02-18T06:24:44.809Z,5.80
2019-02-18T06:27:14.057Z,5.17
2019-02-18T06:29:43.521Z,4.43
2019-02-18T06:32:12.036Z,4.77
2019-02-18T06:34:40.783Z,4.27
2019-02-18T06:37:09.789Z,3.43
2019-02-18T06:39:41.748Z,3.73
2019-02-18T06:42:11.297Z,5.23
2019-02-18T06:44:58.147Z,4.23
2019-02-18T06:47:28.780Z,3.27
2019-02-18T06:49:57.987Z,3.63
2019-02-18T06:52:26.768Z,4.50
2019-02-18T06:54:55.660Z,4.00
2019-02-18T06:57:32.528Z,3.67
2019-02-18T07:00:07.983Z,6.90
2019-02-18T07:02:53.560Z,4.03
2019-02-18T07:05:36.191Z,4.07
2019-02-18T07:08:13.370Z,4.10
2019-02-18T07:11:02.023Z,4.10
2019-02-18T07:13:32.148Z,5.07
2019-02-18T07:16:01.448Z,4.37
2019-02-18T07:18:29.920Z,2.90
2019-02-18T07:20:59.041Z,6.00
2019-02-18T07:23:28.014Z,5.97
2019-02-18T07:25:56.592Z,4.70
2019-02-18T07:28:25.780Z,4.67
2019-02-18T07:30:54.660Z,3.40
2019-02-18T07:33:23.760Z,3.77
2019-02-18T07:35:52.257Z,4.57
2019-02-18T07:38:21.342Z,3.23
2019-02-18T07:40:50.164Z,3.70
2019-02-18T07:43:19.228Z,4.77
2019-02-18T07:45:47.892Z,4.23
2019-02-18T07:48:16.908Z,3.67
2019-02-18T07:50:46.312Z,5.57
2019-02-18T07:53:15.298Z,3.80
2019-02-18T07:55:43.980Z,3.47
2019-02-18T07:58:13.808Z,3.53
2019-02-18T08:00:42.636Z,6.93
2019-02-18T08:03:11.588Z,3.37
2019-02-18T08:05:40.633Z,8.50
2019-02-18T08:08:09.363Z,3.17
2019-02-18T08:10:38.398Z,4.60
2019-02-18T08:13:07.264Z,3.60
2019-02-18T08:15:37.048Z,3.90
2019-02-18T08:18:05.940Z,4.07
2019-02-18T08:20:35.230Z,5.60
2019-02-18T08:23:03.827Z,4.67
2019-02-18T08:25:32.720Z,3.50
2019-02-18T08:28:02.229Z,2.97
2019-02-18T08:30:31.235Z,4.60
2019-02-18T08:33:00.201Z,3.87
2019-02-18T08:35:30.125Z,4.23
2019-02-18T08:37:59.222Z,3.67
2019-02-18T08:40:28.519Z,3.93
2019-02-18T08:42:58.428Z,3.23
2019-02-18T08:45:27.524Z,5.30
2019-02-18T08:47:56.414Z,3.83
2019-02-18T08:50:25.498Z,3.50
2019-02-18T08:52:55.320Z,4.17
2019-02-18T08:55:24.108Z,4.33
2019-02-18T08:57:53.003Z,3.20
2019-02-18T09:00:21.980Z,4.37
2019-02-18T09:02:51.508Z,2.93
2019-02-18T09:05:20.780Z,3.70
2019-02-18T09:07:50.575Z,4.70
2019-02-18T09:10:21.020Z,2.40
2019-02-18T09:12:49.808Z,3.30
2019-02-18T09:15:19.128Z,3.40
2019-02-18T09:17:47.300Z,3.40
2019-02-18T09:20:16.280Z,2.87
2019-02-18T09:23:04.579Z,4.40
2019-02-18T09:25:45.698Z,3.00
2019-02-18T09:28:15.224Z,3.63
2019-02-18T09:30:46.861Z,3.17
2019-02-18T09:33:15.634Z,2.93
2019-02-18T09:35:44.677Z,4.13
2019-02-18T09:38:23.772Z,2.30
2019-02-18T09:40:49.225Z,2.73
2019-02-18T09:43:14.900Z,2.20
2019-02-18T09:45:43.881Z,4.10
2019-02-18T09:48:12.888Z,2.23
2019-02-18T09:50:42.903Z,3.30
2019-02-18T09:53:12.421Z,2.40
2019-02-18T09:55:41.700Z,3.60
2019-02-18T09:58:10.481Z,4.10
2019-02-18T10:00:39.963Z,2.67
2019-02-18T10:03:08.434Z,2.73
2019-02-18T10:05:37.278Z,3.73
2019-02-18T10:08:07.431Z,2.63
2019-02-18T10:10:36.292Z,3.37
2019-02-18T10:13:05.781Z,2.90
2019-02-18T10:15:34.837Z,5.00
2019-02-18T10:18:04.279Z,3.03
2019-02-18T10:20:32.961Z,3.10
2019-02-18T10:23:02.988Z,3.03
2019-02-18T10:25:32.480Z,3.40
2019-02-18T10:28:01.589Z,5.20
2019-02-18T10:30:30.589Z,3.50
2019-02-18T10:32:59.681Z,2.33
2019-02-18T10:35:29.679Z,2.23
2019-02-18T10:37:58.103Z,3.80
2019-02-18T10:40:26.857Z,2.70
2019-02-18T10:42:55.240Z,4.73
2019-02-18T10:45:23.930Z,2.90
2019-02-18T10:47:53.000Z,4.40
2019-02-18T10:50:21.465Z,2.37
2019-02-18T10:52:50.377Z,10.80
2019-02-18T10:55:19.663Z,3.63
2019-02-18T10:57:48.467Z,2.00
2019-02-18T11:00:17.890Z,3.77
2019-02-18T11:02:46.659Z,1.73
2019-02-18T11:05:16.171Z,3.80
2019-02-18T11:07:44.801Z,1.83
2019-02-18T11:10:14.693Z,1.73
2019-02-18T11:12:43.373Z,5.60
2019-02-18T11:15:12.348Z,2.33
2019-02-18T11:17:40.928Z,2.67
2019-02-18T11:20:10.541Z,2.27
2019-02-18T11:22:40.700Z,3.53
2019-02-18T11:25:10.171Z,1.37
2019-02-18T11:27:39.636Z,3.03
2019-02-18T11:30:12.165Z,1.67
2019-02-18T11:32:42.169Z,1.30
2019-02-18T11:35:11.444Z,2.47
2019-02-18T11:37:41.370Z,1.87
2019-02-18T11:40:12.308Z,1.17
2019-02-18T11:42:41.703Z,1.10
2019-02-18T11:45:12.101Z,1.40
2019-02-18T11:47:41.220Z,1.23
2019-02-18T11:50:10.947Z,1.10
2019-02-18T11:52:40.039Z,2.47
2019-02-18T11:55:09.642Z,1.43
2019-02-18T11:57:38.475Z,1.80
2019-02-18T12:00:08.341Z,2.80
2019-02-18T12:02:38.879Z,8.13
2019-02-18T12:05:08.289Z,1.33
2019-02-18T12:07:37.984Z,1.73
2019-02-18T12:10:07.388Z,3.67
2019-02-18T12:12:36.488Z,2.70
2019-02-18T12:15:06.188Z,3.20
2019-02-18T12:17:34.981Z,3.33
2019-02-18T12:20:05.601Z,2.77
2019-02-18T12:22:34.201Z,2.10
2019-02-18T12:25:03.508Z,3.00
2019-02-18T12:27:32.589Z,2.37
2019-02-18T12:30:01.583Z,2.50
2019-02-18T12:32:30.368Z,2.47
2019-02-18T12:34:59.669Z,1.70
2019-02-18T12:37:30.141Z,8.00
2019-02-18T12:39:59.908Z,8.00
2019-02-18T12:42:29.728Z,3.70
2019-02-18T12:44:59.216Z,3.23
2019-02-18T12:47:28.001Z,9.73
2019-02-18T12:49:56.909Z,1.90
2019-02-18T12:52:26.396Z,2.80
2019-02-18T12:54:55.983Z,1.60
2019-02-18T12:57:25.427Z,2.37
2019-02-18T12:59:55.627Z,4.00
2019-02-18T13:02:24.529Z,2.27
2019-02-18T13:04:53.420Z,1.17
2019-02-18T13:07:21.700Z,2.80
2019-02-18T13:09:50.292Z,2.10
2019-02-18T13:12:19.689Z,1.43
2019-02-18T13:14:48.161Z,1.60
2019-02-18T13:17:17.961Z,3.93
2019-02-18T13:19:47.161Z,1.57
2019-02-18T13:22:15.786Z,1.50
2019-02-18T13:24:44.941Z,1.97
2019-02-18T13:27:13.642Z,1.93
2019-02-18T13:29:42.620Z,2.87
2019-02-18T13:32:11.420Z,2.07
2019-02-18T13:34:41.764Z,3.37
2019-02-18T13:37:13.280Z,1.17
2019-02-18T13:39:41.889Z,1.60
2019-02-18T13:42:10.961Z,1.23
2019-02-18T13:44:40.481Z,1.43
2019-02-18T13:47:09.369Z,1.73
2019-02-18T13:49:39.185Z,2.23
2019-02-18T13:52:08.381Z,1.17
2019-02-18T13:54:37.359Z,1.30
2019-02-18T13:57:10.036Z,0.80
2019-02-18T13:59:38.728Z,2.53
2019-02-18T14:02:08.846Z,1.37
2019-02-18T14:04:38.570Z,1.30
2019-02-18T14:07:08.430Z,2.23
2019-02-18T14:09:37.949Z,1.40
2019-02-18T14:12:06.761Z,1.70
2019-02-18T14:14:35.137Z,4.10
2019-02-18T14:17:04.443Z,4.80
2019-02-18T14:19:33.024Z,3.30
2019-02-18T14:22:02.117Z,8.17
2019-02-18T14:24:32.148Z,5.23
2019-02-18T14:27:01.748Z,3.83
2019-02-18T14:29:30.327Z,2.20
2019-02-18T14:31:59.321Z,1.70
2019-02-18T14:34:28.829Z,1.93
2019-02-18T14:36:58.128Z,1.60
2019-02-18T14:39:27.019Z,2.20
2019-02-18T14:41:56.008Z,2.00
2019-02-18T14:44:26.024Z,1.73
2019-02-18T14:46:55.228Z,2.57
2019-02-18T14:49:23.806Z,3.13
2019-02-18T14:51:53.429Z,2.03
2019-02-18T14:54:22.827Z,3.17
2019-02-18T14:56:51.600Z,3.53
2019-02-18T14:59:20.280Z,2.40
2019-02-18T15:01:49.941Z,1.30
2019-02-18T15:04:19.468Z,1.60
2019-02-18T15:06:48.279Z,0.80
2019-02-18T15:09:17.283Z,1.37
2019-02-18T15:11:47.006Z,1.43
2019-02-18T15:14:15.681Z,2.30
2019-02-18T15:16:44.788Z,1.20
2019-02-18T15:19:13.668Z,2.60
2019-02-18T15:21:42.669Z,1.03
2019-02-18T15:24:11.970Z,2.60
2019-02-18T15:26:41.862Z,2.10
2019-02-18T15:29:11.209Z,3.27
2019-02-18T15:31:41.802Z,2.83
2019-02-18T15:34:10.488Z,2.73
2019-02-18T15:36:41.129Z,2.30
2019-02-18T15:39:10.160Z,2.50
2019-02-18T15:41:40.028Z,3.27
2019-02-18T15:44:08.708Z,4.40
2019-02-18T15:46:38.578Z,15.87
2019-02-18T15:49:08.838Z,7.20
2019-02-18T15:51:37.739Z,5.67
2019-02-18T15:54:06.816Z,4.83
2019-02-18T15:56:35.429Z,5.40
2019-02-18T15:59:04.977Z,5.37
2019-02-18T16:01:35.233Z,2.17
2019-02-18T16:04:04.447Z,1.50
2019-02-18T16:06:33.240Z,1.90
2019-02-18T16:09:02.741Z,1.30
2019-02-18T16:11:31.717Z,2.50
2019-02-18T16:14:00.515Z,1.63
2019-02-18T16:16:29.729Z,2.53
2019-02-18T16:18:58.923Z,4.70
2019-02-18T16:21:27.510Z,1.50
2019-02-18T16:23:58.622Z,2.20
2019-02-18T16:26:27.620Z,1.93
2019-02-18T16:28:56.794Z,2.50
2019-02-18T16:31:25.721Z,2.83
2019-02-18T16:33:54.300Z,2.13
2019-02-18T16:36:23.309Z,2.40
2019-02-18T16:38:52.679Z,2.37
2019-02-18T16:41:21.268Z,1.73
2019-02-18T16:43:51.338Z,1.40
2019-02-18T16:46:21.161Z,2.10
2019-02-18T16:48:50.713Z,1.83
2019-02-18T16:51:19.809Z,1.10
2019-02-18T16:53:48.389Z,2.00
2019-02-18T16:56:19.550Z,1.20
2019-02-18T16:58:49.495Z,2.37
2019-02-18T17:01:18.998Z,3.77
2019-02-18T17:03:49.388Z,1.73
2019-02-18T17:06:18.584Z,2.03
2019-02-18T17:08:48.278Z,2.10
2019-02-18T17:11:17.788Z,1.90
2019-02-18T17:13:47.312Z,1.47
2019-02-18T17:16:17.100Z,1.40
2019-02-18T17:18:46.341Z,1.43
2019-02-18T17:21:16.121Z,1.50
2019-02-18T17:23:45.427Z,1.60
2019-02-18T17:26:14.728Z,1.83
2019-02-18T17:28:44.422Z,4.40
2019-02-18T17:31:15.060Z,2.77
2019-02-18T17:33:45.468Z,2.30
2019-02-18T17:36:15.081Z,3.50
2019-02-18T17:38:44.487Z,4.83
2019-02-18T17:41:14.108Z,5.07
2019-02-18T17:43:45.767Z,4.93
2019-02-18T17:46:15.452Z,3.43
2019-02-18T17:48:44.547Z,3.77
2019-02-18T17:51:14.168Z,3.90
2019-02-18T17:53:43.468Z,4.70
2019-02-18T17:56:13.889Z,4.27
2019-02-18T17:58:43.489Z,7.20
2019-02-18T18:01:12.677Z,4.07
2019-02-18T18:03:42.703Z,10.30
2019-02-18T18:06:12.221Z,8.40
2019-02-18T18:08:42.147Z,3.53
2019-02-18T18:11:13.188Z,3.80
2019-02-18T18:13:42.490Z,4.37
2019-02-18T18:16:12.680Z,1.90
2019-02-18T18:18:42.608Z,2.30
2019-02-18T18:21:11.901Z,1.40
2019-02-18T18:23:41.405Z,3.10
2019-02-18T18:26:10.900Z,2.93
2019-02-18T18:28:41.335Z,1.70
2019-02-18T18:31:11.060Z,1.70
2019-02-18T18:33:41.178Z,6.23
2019-02-18T18:36:10.588Z,4.83
2019-02-18T18:38:40.708Z,2.07
2019-02-18T18:41:10.365Z,3.87
2019-02-18T18:43:39.800Z,3.00
2019-02-18T18:46:09.403Z,3.30
2019-02-18T18:48:38.764Z,4.63
2019-02-18T18:51:08.616Z,4.50
2019-02-18T18:53:39.043Z,4.40
2019-02-18T18:56:10.278Z,3.27
2019-02-18T18:58:39.763Z,2.93
2019-02-18T19:01:09.706Z,2.00
2019-02-18T19:03:39.203Z,1.93
2019-02-18T19:06:12.624Z,2.63
2019-02-18T19:08:43.715Z,2.70
2019-02-18T19:11:16.539Z,2.50
2019-02-18T19:13:47.488Z,2.20
2019-02-18T19:16:18.198Z,3.03
2019-02-18T19:18:49.895Z,2.93
2019-02-18T19:21:20.508Z,3.37
2019-02-18T19:23:53.688Z,2.80
2019-02-18T19:26:24.748Z,2.07
2019-02-18T19:28:54.527Z,2.90
2019-02-18T19:31:28.955Z,5.90
2019-02-18T19:33:59.769Z,5.00
2019-02-18T19:36:32.204Z,5.03
2019-02-18T19:39:03.538Z,4.50
2019-02-18T19:41:33.112Z,7.70
2019-02-18T19:44:03.338Z,4.13
2019-02-18T19:46:33.988Z,6.77
2019-02-18T19:49:07.258Z,6.53
2019-02-18T19:51:37.176Z,4.33
2019-02-18T19:54:10.677Z,4.23
2019-02-18T19:56:42.029Z,3.97
2019-02-18T19:59:12.043Z,4.40
2019-02-18T20:01:41.780Z,4.70
2019-02-18T20:04:14.840Z,2.47
2019-02-18T20:06:44.568Z,2.97
2019-02-18T20:09:16.609Z,6.77
2019-02-18T20:11:46.176Z,6.07
2019-02-18T20:14:15.848Z,3.50
2019-02-18T20:16:45.545Z,3.27
2019-02-18T20:19:26.221Z,3.13
2019-02-18T20:21:55.622Z,2.07
2019-02-18T20:24:25.528Z,2.73
2019-02-18T20:26:56.189Z,2.70
2019-02-18T20:29:27.690Z,2.43
2019-02-18T20:31:57.528Z,3.60
2019-02-18T20:34:28.055Z,6.13
2019-02-18T20:36:58.150Z,14.40
2019-02-18T20:39:27.975Z,20.83
2019-02-18T20:41:58.528Z,16.80
2019-02-18T20:44:28.428Z,16.57
2019-02-18T20:46:58.349Z,11.13
2019-02-18T20:49:28.269Z,8.73
2019-02-18T20:51:58.129Z,7.47
2019-02-18T20:54:27.268Z,7.10
2019-02-18T20:56:56.870Z,7.23
2019-02-18T20:59:26.511Z,6.27
2019-02-18T21:01:56.042Z,7.93
2019-02-18T21:04:26.409Z,8.13
2019-02-18T21:06:55.959Z,10.30
2019-02-18T21:09:26.485Z,8.40
2019-02-18T21:11:56.469Z,11.50
2019-02-18T21:14:26.287Z,8.67
2019-02-18T21:16:56.214Z,10.27
2019-02-18T21:19:26.109Z,7.30
2019-02-18T21:21:56.430Z,10.40
2019-02-18T21:24:26.645Z,7.90
2019-02-18T21:26:56.268Z,9.50
2019-02-18T21:29:25.343Z,9.63
2019-02-18T21:31:54.946Z,7.30
2019-02-18T21:34:24.443Z,9.40
2019-02-18T21:36:54.161Z,8.83
2019-02-18T21:39:24.791Z,7.10
2019-02-18T21:41:54.755Z,11.20
2019-02-18T21:44:25.530Z,9.67
2019-02-18T21:46:55.156Z,7.57
2019-02-18T21:49:25.060Z,7.17
2019-02-18T21:51:54.588Z,9.33
2019-02-18T21:54:24.235Z,9.10
2019-02-18T21:56:52.968Z,11.67
2019-02-18T21:59:22.261Z,11.20
2019-02-18T22:01:52.308Z,5.90
2019-02-18T22:04:21.684Z,7.80
2019-02-18T22:06:50.789Z,6.00
2019-02-18T22:09:19.468Z,9.23
2019-02-18T22:11:49.533Z,7.47
2019-02-18T22:14:18.300Z,9.00
2019-02-18T22:16:47.159Z,6.57
2019-02-18T22:19:16.359Z,6.87
2019-02-18T22:21:45.663Z,6.70
2019-02-18T22:24:14.761Z,6.30
2019-02-18T22:26:43.970Z,6.47
2019-02-18T22:29:13.161Z,6.17
2019-02-18T22:31:41.640Z,9.93
2019-02-18T22:34:11.047Z,8.33
2019-02-18T22:36:40.303Z,7.37
2019-02-18T22:39:09.419Z,9.60
2019-02-18T22:41:38.619Z,6.80
2019-02-18T22:44:07.420Z,8.77
2019-02-18T22:46:36.400Z,7.07
2019-02-18T22:49:05.600Z,8.97
2019-02-18T22:51:34.302Z,10.07
2019-02-18T22:54:02.760Z,8.73
2019-02-18T22:56:32.687Z,7.77
2019-02-18T22:59:01.636Z,6.00
2019-02-18T23:01:30.560Z,9.07
2019-02-18T23:03:59.568Z,7.63
2019-02-18T23:06:29.281Z,7.90
2019-02-18T23:08:57.860Z,8.80
2019-02-18T23:11:26.941Z,7.33
2019-02-18T23:13:55.651Z,8.03
2019-02-18T23:16:24.828Z,7.37
2019-02-18T23:18:53.627Z,7.90
2019-02-18T23:21:22.703Z,6.40
2019-02-18T23:23:52.418Z,5.90
2019-02-18T23:26:20.873Z,7.90
2019-02-18T23:28:49.316Z,7.50
2019-02-18T23:31:18.388Z,6.90
2019-02-18T23:33:47.369Z,7.03
2019-02-18T23:36:16.360Z,7.10
2019-02-18T23:38:45.385Z,7.93
2019-02-18T23:41:14.698Z,6.23
2019-02-18T23:43:43.639Z,6.90
2019-02-18T23:46:12.440Z,5.57
2019-02-18T23:48:41.427Z,6.83
2019-02-18T23:51:12.981Z,5.77
2019-02-18T23:53:41.879Z,6.43
2019-02-18T23:56:10.606Z,4.80
2019-02-18T23:58:39.086Z,7.40
